sensor_id;sensor_type;location;lat;lon;timestamp;pressure;altitude;pressure_sealevel;temperature;humidity
50592;BME280;36548;50.506;30.834;2023-07-24T00:00:59;99881.32;;;20.98;52.57
50592;BME280;36548;50.506;30.834;2023-07-24T00:02:08;99890.55;;;20.89;52.49
50592;BME280;36548;50.506;30.834;2023-07-24T00:03:17;99890.25;;;20.84;52.66
50592;BME280;36548;50.506;30.834;2023-07-24T00:04:33;99884.28;;;20.80;53.01
50592;BME280;36548;50.506;30.834;2023-07-24T00:05:43;99888.54;;;20.66;53.19
50592;BME280;36548;50.506;30.834;2023-07-24T00:06:53;99890.92;;;20.61;53.30
50592;BME280;36548;50.506;30.834;2023-07-24T00:08:09;99881.20;;;20.67;53.40
50592;BME280;36548;50.506;30.834;2023-07-24T00:09:19;99888.56;;;20.50;53.64
50592;BME280;36548;50.506;30.834;2023-07-24T00:10:36;99882.58;;;20.54;53.86
50592;BME280;36548;50.506;30.834;2023-07-24T00:11:45;99881.09;;;20.35;54.02
50592;BME280;36548;50.506;30.834;2023-07-24T00:13:00;99878.36;;;20.43;54.15
50592;BME280;36548;50.506;30.834;2023-07-24T00:14:11;99883.12;;;20.33;54.11
50592;BME280;36548;50.506;30.834;2023-07-24T00:15:21;99882.47;;;20.31;54.11
50592;BME280;36548;50.506;30.834;2023-07-24T00:16:36;99877.49;;;20.43;54.27
50592;BME280;36548;50.506;30.834;2023-07-24T00:17:47;99883.82;;;20.35;54.23
50592;BME280;36548;50.506;30.834;2023-07-24T00:19:02;99873.40;;;20.47;54.12
50592;BME280;36548;50.506;30.834;2023-07-24T00:20:12;99885.19;;;20.39;54.04
50592;BME280;36548;50.506;30.834;2023-07-24T00:21:22;99880.39;;;20.41;53.83
50592;BME280;36548;50.506;30.834;2023-07-24T00:22:32;99883.81;;;20.43;53.65
50592;BME280;36548;50.506;30.834;2023-07-24T00:23:41;99874.41;;;20.46;53.66
50592;BME280;36548;50.506;30.834;2023-07-24T00:24:56;99868.62;;;20.57;53.57
50592;BME280;36548;50.506;30.834;2023-07-24T00:26:06;99870.01;;;20.45;53.55
50592;BME280;36548;50.506;30.834;2023-07-24T00:27:22;99863.34;;;20.56;53.48
50592;BME280;36548;50.506;30.834;2023-07-24T00:28:32;99865.40;;;20.46;53.48
50592;BME280;36548;50.506;30.834;2023-07-24T00:29:42;99865.40;;;20.46;53.63
50592;BME280;36548;50.506;30.834;2023-07-24T00:30:51;99866.59;;;20.43;53.61
50592;BME280;36548;50.506;30.834;2023-07-24T00:32:01;99869.84;;;20.38;53.62
50592;BME280;36548;50.506;30.834;2023-07-24T00:33:11;99865.58;;;20.36;53.68
50592;BME280;36548;50.506;30.834;2023-07-24T00:34:26;99863.37;;;20.48;53.78
50592;BME280;36548;50.506;30.834;2023-07-24T00:35:36;99864.22;;;20.32;53.76
50592;BME280;36548;50.506;30.834;2023-07-24T00:36:54;99865.05;;;20.40;53.85
50592;BME280;36548;50.506;30.834;2023-07-24T00:38:05;99862.69;;;20.29;53.83
50592;BME280;36548;50.506;30.834;2023-07-24T00:39:22;99856.22;;;20.38;53.84
50592;BME280;36548;50.506;30.834;2023-07-24T00:40:31;99860.83;;;20.30;53.82
50592;BME280;36548;50.506;30.834;2023-07-24T00:41:40;99869.02;;;20.30;53.84
50592;BME280;36548;50.506;30.834;2023-07-24T00:42:55;99851.42;;;20.40;53.91
50592;BME280;36548;50.506;30.834;2023-07-24T00:44:05;99858.11;;;20.30;53.78
50592;BME280;36548;50.506;30.834;2023-07-24T00:45:21;99858.77;;;20.40;53.69
50592;BME280;36548;50.506;30.834;2023-07-24T00:46:31;99857.06;;;20.31;53.67
50592;BME280;36548;50.506;30.834;2023-07-24T00:47:47;99849.23;;;20.36;53.64
50592;BME280;36548;50.506;30.834;2023-07-24T00:50:15;99850.42;;;20.33;53.79
50592;BME280;36548;50.506;30.834;2023-07-24T00:51:26;99859.65;;;20.24;53.86
50592;BME280;36548;50.506;30.834;2023-07-24T00:52:39;99858.78;;;20.23;53.86
50592;BME280;36548;50.506;30.834;2023-07-24T00:53:56;99853.66;;;20.37;53.81
50592;BME280;36548;50.506;30.834;2023-07-24T00:55:07;99855.52;;;20.28;53.79
50592;BME280;36548;50.506;30.834;2023-07-24T00:56:16;99851.44;;;20.32;53.80
50592;BME280;36548;50.506;30.834;2023-07-24T00:57:26;99856.74;;;20.34;53.72
50592;BME280;36548;50.506;30.834;2023-07-24T00:58:37;99851.77;;;20.37;53.61
50592;BME280;36548;50.506;30.834;2023-07-24T00:59:54;99852.61;;;20.46;53.39
50592;BME280;36548;50.506;30.834;2023-07-24T01:01:04;99845.84;;;20.34;53.20
50592;BME280;36548;50.506;30.834;2023-07-24T01:02:14;99850.42;;;20.33;53.33
50592;BME280;36548;50.506;30.834;2023-07-24T01:03:27;99849.58;;;20.33;53.43
50592;BME280;36548;50.506;30.834;2023-07-24T01:04:44;99847.86;;;20.40;53.56
50592;BME280;36548;50.506;30.834;2023-07-24T01:05:54;99849.23;;;20.27;53.57
50592;BME280;36548;50.506;30.834;2023-07-24T01:07:05;99850.95;;;20.20;53.65
50592;BME280;36548;50.506;30.834;2023-07-24T01:08:16;99854.03;;;20.17;53.86
50592;BME280;36548;50.506;30.834;2023-07-24T01:09:26;99847.70;;;20.17;53.91
50592;BME280;36548;50.506;30.834;2023-07-24T01:10:37;99836.98;;;20.15;53.76
50592;BME280;36548;50.506;30.834;2023-07-24T01:12:10;99848.57;;;20.25;53.81
50592;BME280;36548;50.506;30.834;2023-07-24T01:13:24;99845.51;;;20.12;53.77
50592;BME280;36548;50.506;30.834;2023-07-24T01:17:16;99840.72;;;20.22;53.91
50592;BME280;36548;50.506;30.834;2023-07-24T01:18:30;99840.23;;;20.10;53.78
50592;BME280;36548;50.506;30.834;2023-07-24T01:19:47;99844.31;;;20.23;53.91
50592;BME280;36548;50.506;30.834;2023-07-24T01:20:57;99843.80;;;20.11;54.00
50592;BME280;36548;50.506;30.834;2023-07-24T01:23:54;99846.20;;;20.06;53.76
50592;BME280;36548;50.506;30.834;2023-07-24T01:26:25;99846.34;;;20.04;53.97
50592;BME280;36548;50.506;30.834;2023-07-24T01:27:43;99844.48;;;20.13;53.87
50592;BME280;36548;50.506;30.834;2023-07-24T01:28:55;99849.94;;;20.05;53.97
50592;BME280;36548;50.506;30.834;2023-07-24T01:30:16;99847.70;;;20.17;53.98
50592;BME280;36548;50.506;30.834;2023-07-24T01:31:24;99851.66;;;20.06;53.65
50592;BME280;36548;50.506;30.834;2023-07-24T01:32:34;99847.88;;;20.07;53.65
50592;BME280;36548;50.506;30.834;2023-07-24T01:33:44;99846.87;;;20.08;53.60
50592;BME280;36548;50.506;30.834;2023-07-24T01:35:00;99840.41;;;20.17;53.51
50592;BME280;36548;50.506;30.834;2023-07-24T01:36:11;99845.33;;;20.05;53.59
50592;BME280;36548;50.506;30.834;2023-07-24T01:37:28;99844.31;;;20.15;53.58
50592;BME280;36548;50.506;30.834;2023-07-24T01:38:39;99844.32;;;20.06;53.66
50592;BME280;36548;50.506;30.834;2023-07-24T01:39:50;99846.20;;;20.06;53.42
50592;BME280;36548;50.506;30.834;2023-07-24T01:41:02;99846.20;;;19.98;53.34
50592;BME280;36548;50.506;30.834;2023-07-24T01:42:18;99849.42;;;20.09;53.58
50592;BME280;36548;50.506;30.834;2023-07-24T01:43:29;99844.49;;;19.97;53.60
50592;BME280;36548;50.506;30.834;2023-07-24T01:44:53;99849.77;;;20.06;53.33
50592;BME280;36548;50.506;30.834;2023-07-24T01:46:02;99854.52;;;19.96;53.11
50592;BME280;36548;50.506;30.834;2023-07-24T01:47:12;99850.95;;;19.96;53.18
50592;BME280;36548;50.506;30.834;2023-07-24T01:48:27;99839.56;;;19.92;53.58
50592;BME280;36548;50.506;30.834;2023-07-24T01:49:37;99851.81;;;19.80;53.07
50592;BME280;36548;50.506;30.834;2023-07-24T01:50:53;99841.25;;;19.93;53.39
50592;BME280;36548;50.506;30.834;2023-07-24T01:52:04;99845.32;;;19.81;53.23
50592;BME280;36548;50.506;30.834;2023-07-24T01:53:20;99844.14;;;19.91;53.40
50592;BME280;36548;50.506;30.834;2023-07-24T01:54:29;99844.31;;;19.82;53.38
50592;BME280;36548;50.506;30.834;2023-07-24T01:55:45;99842.11;;;19.85;53.33
50592;BME280;36548;50.506;30.834;2023-07-24T01:56:54;99841.90;;;19.79;53.37
50592;BME280;36548;50.506;30.834;2023-07-24T01:58:05;99844.48;;;19.80;53.43
50592;BME280;36548;50.506;30.834;2023-07-24T01:59:20;99843.47;;;19.89;53.48
50592;BME280;36548;50.506;30.834;2023-07-24T02:00:30;99847.87;;;19.82;53.46
50592;BME280;36548;50.506;30.834;2023-07-24T02:01:40;99856.91;;;19.83;53.42
50592;BME280;36548;50.506;30.834;2023-07-24T02:02:56;99847.73;;;19.92;53.36
50592;BME280;36548;50.506;30.834;2023-07-24T02:04:07;99849.58;;;19.83;53.27
50592;BME280;36548;50.506;30.834;2023-07-24T02:05:18;99854.02;;;19.84;53.34
50592;BME280;36548;50.506;30.834;2023-07-24T02:06:28;99859.13;;;19.87;53.19
50592;BME280;36548;50.506;30.834;2023-07-24T02:07:43;99856.92;;;19.99;53.01
50592;BME280;36548;50.506;30.834;2023-07-24T02:08:52;99856.39;;;19.87;53.18
50592;BME280;36548;50.506;30.834;2023-07-24T02:10:08;99851.48;;;19.99;53.17
50592;BME280;36548;50.506;30.834;2023-07-24T02:11:18;99857.41;;;19.86;53.06
50592;BME280;36548;50.506;30.834;2023-07-24T02:12:27;99860.30;;;19.85;53.28
50592;BME280;36548;50.506;30.834;2023-07-24T02:13:45;99859.13;;;19.96;53.31
50592;BME280;36548;50.506;30.834;2023-07-24T02:14:56;99866.27;;;19.80;53.33
50592;BME280;36548;50.506;30.834;2023-07-24T02:16:13;99865.08;;;19.83;53.87
50592;BME280;36548;50.506;30.834;2023-07-24T02:17:23;99875.08;;;19.66;54.22
50592;BME280;36548;50.506;30.834;2023-07-24T02:18:32;99869.10;;;19.62;54.39
50592;BME280;36548;50.506;30.834;2023-07-24T02:19:42;99869.46;;;19.67;54.41
50592;BME280;36548;50.506;30.834;2023-07-24T02:20:52;99863.66;;;19.62;54.67
50592;BME280;36548;50.506;30.834;2023-07-24T02:22:26;99867.92;;;19.65;54.91
50592;BME280;36548;50.506;30.834;2023-07-24T02:23:38;99868.74;;;19.57;54.92
50592;BME280;36548;50.506;30.834;2023-07-24T02:24:53;99869.95;;;19.71;54.89
50592;BME280;36548;50.506;30.834;2023-07-24T02:26:05;99871.63;;;19.55;54.76
50592;BME280;36548;50.506;30.834;2023-07-24T02:27:26;99867.20;;;19.54;54.71
50592;BME280;36548;50.506;30.834;2023-07-24T02:28:43;99860.77;;;19.64;54.59
50592;BME280;36548;50.506;30.834;2023-07-24T02:29:54;99860.08;;;19.53;54.25
50592;BME280;36548;50.506;30.834;2023-07-24T02:31:09;99859.23;;;19.69;54.28
50592;BME280;36548;50.506;30.834;2023-07-24T02:32:18;99864.17;;;19.57;54.02
50592;BME280;36548;50.506;30.834;2023-07-24T02:33:36;99854.32;;;19.73;54.22
50592;BME280;36548;50.506;30.834;2023-07-24T02:34:49;99870.47;;;19.66;53.81
50592;BME280;36548;50.506;30.834;2023-07-24T02:36:00;99873.55;;;19.71;53.75
50592;BME280;36548;50.506;30.834;2023-07-24T02:37:14;99875.41;;;19.71;53.76
50592;BME280;36548;50.506;30.834;2023-07-24T02:38:29;99868.83;;;19.90;53.85
50592;BME280;36548;50.506;30.834;2023-07-24T02:39:40;99873.43;;;19.81;53.29
50592;BME280;36548;50.506;30.834;2023-07-24T02:40:49;99867.42;;;19.78;53.23
50592;BME280;36548;50.506;30.834;2023-07-24T02:41:59;99880.85;;;19.71;53.43
50592;BME280;36548;50.506;30.834;2023-07-24T02:43:15;99877.30;;;19.79;53.63
50592;BME280;36548;50.506;30.834;2023-07-24T02:44:23;99877.64;;;19.75;53.68
50592;BME280;36548;50.506;30.834;2023-07-24T02:45:34;99877.16;;;19.80;53.50
50592;BME280;36548;50.506;30.834;2023-07-24T02:46:44;99876.15;;;19.81;53.50
50592;BME280;36548;50.506;30.834;2023-07-24T02:47:54;99875.42;;;19.79;53.50
50592;BME280;36548;50.506;30.834;2023-07-24T02:49:09;99876.47;;;19.86;53.92
50592;BME280;36548;50.506;30.834;2023-07-24T02:50:19;99873.88;;;19.76;54.04
50592;BME280;36548;50.506;30.834;2023-07-24T02:51:29;99874.92;;;19.75;54.25
50592;BME280;36548;50.506;30.834;2023-07-24T02:52:45;99872.73;;;19.87;54.30
50592;BME280;36548;50.506;30.834;2023-07-24T02:53:56;99873.25;;;19.83;54.29
50592;BME280;36548;50.506;30.834;2023-07-24T02:55:12;99873.09;;;19.92;54.06
50592;BME280;36548;50.506;30.834;2023-07-24T02:56:21;99880.56;;;19.90;54.40
50592;BME280;36548;50.506;30.834;2023-07-24T02:57:37;99866.78;;;20.08;53.73
50592;BME280;36548;50.506;30.834;2023-07-24T02:58:47;99880.92;;;20.04;53.58
50592;BME280;36548;50.506;30.834;2023-07-24T02:59:57;99880.92;;;20.12;53.29
50592;BME280;36548;50.506;30.834;2023-07-24T03:01:08;99881.28;;;20.17;52.96
50592;BME280;36548;50.506;30.834;2023-07-24T03:02:18;99880.75;;;20.22;53.00
50592;BME280;36548;50.506;30.834;2023-07-24T03:03:29;99886.73;;;20.25;52.72
50592;BME280;36548;50.506;30.834;2023-07-24T03:04:40;99882.47;;;20.31;52.73
50592;BME280;36548;50.506;30.834;2023-07-24T03:05:50;99887.21;;;20.37;52.63
50592;BME280;36548;50.506;30.834;2023-07-24T03:07:06;99878.50;;;20.50;52.26
50592;BME280;36548;50.506;30.834;2023-07-24T03:08:16;99873.93;;;20.42;52.04
50592;BME280;36548;50.506;30.834;2023-07-24T03:09:32;99869.98;;;20.61;51.99
50592;BME280;36548;50.506;30.834;2023-07-24T03:10:42;99879.53;;;20.57;52.10
50592;BME280;36548;50.506;30.834;2023-07-24T03:11:55;99877.63;;;20.66;51.97
50592;BME280;36548;50.506;30.834;2023-07-24T03:13:10;99865.36;;;20.78;51.14
50592;BME280;36548;50.506;30.834;2023-07-24T03:14:20;99874.22;;;20.72;51.51
50592;BME280;36548;50.506;30.834;2023-07-24T03:15:30;99872.53;;;20.80;51.17
50592;BME280;36548;50.506;30.834;2023-07-24T03:16:42;99872.83;;;20.85;50.87
50592;BME280;36548;50.506;30.834;2023-07-24T03:17:51;99877.06;;;20.95;51.13
50592;BME280;36548;50.506;30.834;2023-07-24T03:19:02;99872.95;;;21.00;49.97
50592;BME280;36548;50.506;30.834;2023-07-24T03:20:19;99872.05;;;21.16;49.86
50592;BME280;36548;50.506;30.834;2023-07-24T03:21:28;99872.09;;;21.07;49.93
50592;BME280;36548;50.506;30.834;2023-07-24T03:22:40;99870.89;;;21.10;50.00
50592;BME280;36548;50.506;30.834;2023-07-24T03:23:56;99874.86;;;21.31;49.77
50592;BME280;36548;50.506;30.834;2023-07-24T03:25:06;99875.59;;;21.24;49.75
50592;BME280;36548;50.506;30.834;2023-07-24T03:26:21;99873.62;;;21.41;49.63
50592;BME280;36548;50.506;30.834;2023-07-24T03:27:30;99866.63;;;21.39;49.39
50592;BME280;36548;50.506;30.834;2023-07-24T03:28:45;99868.65;;;21.53;48.98
50592;BME280;36548;50.506;30.834;2023-07-24T03:29:53;99871.58;;;21.43;49.12
50592;BME280;36548;50.506;30.834;2023-07-24T03:31:08;99865.55;;;21.56;49.25
50592;BME280;36548;50.506;30.834;2023-07-24T03:32:19;99866.22;;;21.50;49.31
50592;BME280;36548;50.506;30.834;2023-07-24T03:33:28;99862.45;;;21.59;49.12
50592;BME280;36548;50.506;30.834;2023-07-24T03:34:38;99856.44;;;21.64;48.83
50592;BME280;36548;50.506;30.834;2023-07-24T03:35:48;99858.46;;;21.70;48.39
50592;BME280;36548;50.506;30.834;2023-07-24T03:36:57;99855.36;;;21.73;47.89
50592;BME280;36548;50.506;30.834;2023-07-24T03:38:07;99860.27;;;21.78;47.74
50592;BME280;36548;50.506;30.834;2023-07-24T03:39:17;99865.33;;;21.89;47.75
50592;BME280;36548;50.506;30.834;2023-07-24T03:40:27;99856.77;;;21.92;47.21
50592;BME280;36548;50.506;30.834;2023-07-24T03:41:37;99852.45;;;21.98;47.27
50592;BME280;36548;50.506;30.834;2023-07-24T03:42:52;99855.24;;;22.28;47.70
50592;BME280;36548;50.506;30.834;2023-07-24T03:44:02;99854.66;;;22.18;46.76
50592;BME280;36548;50.506;30.834;2023-07-24T03:45:18;99855.13;;;22.44;46.59
50592;BME280;36548;50.506;30.834;2023-07-24T03:46:27;99860.59;;;22.44;46.09
50592;BME280;36548;50.506;30.834;2023-07-24T03:47:38;99855.63;;;22.63;45.80
50592;BME280;36548;50.506;30.834;2023-07-24T03:48:49;99851.02;;;22.78;45.02
50592;BME280;36548;50.506;30.834;2023-07-24T03:50:06;99852.05;;;23.07;44.69
50592;BME280;36548;50.506;30.834;2023-07-24T03:51:15;99858.67;;;23.13;44.37
50592;BME280;36548;50.506;30.834;2023-07-24T03:52:26;99855.05;;;23.27;44.38
50592;BME280;36548;50.506;30.834;2023-07-24T03:53:36;99849.55;;;23.42;44.18
50592;BME280;36548;50.506;30.834;2023-07-24T03:55:11;99847.16;;;23.76;43.56
50592;BME280;36548;50.506;30.834;2023-07-24T03:56:20;99848.67;;;23.78;43.40
50592;BME280;36548;50.506;30.834;2023-07-24T03:57:36;99844.20;;;23.92;42.61
50592;BME280;36548;50.506;30.834;2023-07-24T03:58:45;99850.41;;;23.86;42.96
50592;BME280;36548;50.506;30.834;2023-07-24T04:00:01;99849.95;;;23.97;42.65
50592;BME280;36548;50.506;30.834;2023-07-24T04:01:12;99848.40;;;23.73;43.11
50592;BME280;36548;50.506;30.834;2023-07-24T04:02:23;99852.05;;;23.80;43.60
50592;BME280;36548;50.506;30.834;2023-07-24T04:03:33;99847.80;;;23.78;42.83
50592;BME280;36548;50.506;30.834;2023-07-24T04:04:44;99846.89;;;23.71;43.13
50592;BME280;36548;50.506;30.834;2023-07-24T04:06:00;99846.69;;;23.72;43.22
50592;BME280;36548;50.506;30.834;2023-07-24T04:07:10;99843.28;;;23.48;43.60
50592;BME280;36548;50.506;30.834;2023-07-24T04:08:26;99844.98;;;23.49;43.94
50592;BME280;36548;50.506;30.834;2023-07-24T04:09:37;99844.70;;;23.44;44.20
50592;BME280;36548;50.506;30.834;2023-07-24T04:10:53;99842.01;;;23.66;44.66
50592;BME280;36548;50.506;30.834;2023-07-24T04:12:05;99840.10;;;23.66;44.62
50592;BME280;36548;50.506;30.834;2023-07-24T04:13:20;99838.61;;;23.86;43.91
50592;BME280;36548;50.506;30.834;2023-07-24T04:14:30;99840.05;;;23.81;43.70
50592;BME280;36548;50.506;30.834;2023-07-24T04:15:39;99839.55;;;23.93;44.09
50592;BME280;36548;50.506;30.834;2023-07-24T04:17:02;99831.95;;;24.16;44.02
50592;BME280;36548;50.506;30.834;2023-07-24T04:18:12;99836.60;;;24.16;43.85
50592;BME280;36548;50.506;30.834;2023-07-24T04:19:28;99830.63;;;24.34;43.57
50592;BME280;36548;50.506;30.834;2023-07-24T04:20:39;99835.02;;;24.28;43.67
50592;BME280;36548;50.506;30.834;2023-07-24T04:21:55;99834.77;;;24.51;43.78
50592;BME280;36548;50.506;30.834;2023-07-24T04:23:05;99835.61;;;24.52;44.07
50592;BME280;36548;50.506;30.834;2023-07-24T04:24:22;99828.02;;;24.82;43.05
50592;BME280;36548;50.506;30.834;2023-07-24T04:25:32;99828.22;;;24.81;43.05
50592;BME280;36548;50.506;30.834;2023-07-24T04:26:48;99822.98;;;24.93;42.47
50592;BME280;36548;50.506;30.834;2023-07-24T04:27:57;99830.76;;;24.82;42.60
50592;BME280;36548;50.506;30.834;2023-07-24T04:29:06;99821.27;;;24.85;42.71
50592;BME280;36548;50.506;30.834;2023-07-24T04:30:22;99824.27;;;24.97;42.71
50592;BME280;36548;50.506;30.834;2023-07-24T04:31:31;99818.75;;;24.90;42.70
50592;BME280;36548;50.506;30.834;2023-07-24T04:32:42;99822.19;;;24.99;42.66
50592;BME280;36548;50.506;30.834;2023-07-24T04:33:58;99817.42;;;25.28;42.48
50592;BME280;36548;50.506;30.834;2023-07-24T04:35:09;99821.45;;;25.25;42.42
50592;BME280;36548;50.506;30.834;2023-07-24T04:36:24;99820.72;;;25.51;42.31
50592;BME280;36548;50.506;30.834;2023-07-24T04:37:33;99831.69;;;25.45;41.85
50592;BME280;36548;50.506;30.834;2023-07-24T04:38:42;99823.86;;;25.48;42.27
50592;BME280;36548;50.506;30.834;2023-07-24T04:39:52;99825.34;;;25.51;42.19
50592;BME280;36548;50.506;30.834;2023-07-24T04:41:03;99828.34;;;25.63;42.18
50592;BME280;36548;50.506;30.834;2023-07-24T04:42:19;99818.62;;;25.74;41.95
50592;BME280;36548;50.506;30.834;2023-07-24T04:43:28;99824.97;;;25.67;42.40
50592;BME280;36548;50.506;30.834;2023-07-24T04:44:50;99819.70;;;25.93;42.17
50592;BME280;36548;50.506;30.834;2023-07-24T04:46:01;99826.47;;;25.90;41.96
50592;BME280;36548;50.506;30.834;2023-07-24T04:47:12;99820.97;;;25.97;42.20
50592;BME280;36548;50.506;30.834;2023-07-24T04:48:28;99819.76;;;26.13;41.11
50592;BME280;36548;50.506;30.834;2023-07-24T04:49:38;99824.78;;;25.96;40.93
50592;BME280;36548;50.506;30.834;2023-07-24T04:50:53;99817.17;;;25.98;41.20
50592;BME280;36548;50.506;30.834;2023-07-24T04:52:10;99819.97;;;26.11;41.52
50592;BME280;36548;50.506;30.834;2023-07-24T04:53:22;99821.41;;;25.94;40.98
50592;BME280;36548;50.506;30.834;2023-07-24T04:54:32;99818.87;;;25.92;41.21
50592;BME280;36548;50.506;30.834;2023-07-24T04:55:48;99821.41;;;26.00;41.58
50592;BME280;36548;50.506;30.834;2023-07-24T04:56:58;99825.86;;;25.95;41.74
50592;BME280;36548;50.506;30.834;2023-07-24T04:58:13;99818.05;;;26.12;41.81
50592;BME280;36548;50.506;30.834;2023-07-24T04:59:22;99819.97;;;26.05;41.60
50592;BME280;36548;50.506;30.834;2023-07-24T05:00:38;99820.38;;;26.22;42.01
50592;BME280;36548;50.506;30.834;2023-07-24T05:01:47;99819.95;;;26.18;41.78
50592;BME280;36548;50.506;30.834;2023-07-24T05:02:58;99819.11;;;26.24;41.82
50592;BME280;36548;50.506;30.834;2023-07-24T05:04:15;99815.50;;;26.37;41.32
50592;BME280;36548;50.506;30.834;2023-07-24T05:05:25;99819.95;;;26.31;41.31
50592;BME280;36548;50.506;30.834;2023-07-24T05:06:35;99814.23;;;26.33;41.12
50592;BME280;36548;50.506;30.834;2023-07-24T05:07:52;99808.28;;;26.43;41.47
50592;BME280;36548;50.506;30.834;2023-07-24T05:09:01;99811.91;;;26.36;41.35
50592;BME280;36548;50.506;30.834;2023-07-24T05:10:11;99814.22;;;26.46;41.64
50592;BME280;36548;50.506;30.834;2023-07-24T05:11:27;99811.02;;;26.63;40.63
50592;BME280;36548;50.506;30.834;2023-07-24T05:12:36;99821.17;;;26.55;40.74
50592;BME280;36548;50.506;30.834;2023-07-24T05:13:46;99819.06;;;26.64;40.47
50592;BME280;36548;50.506;30.834;2023-07-24T05:14:56;99806.55;;;26.68;40.46
50592;BME280;36548;50.506;30.834;2023-07-24T05:16:12;99807.61;;;26.81;40.05
50592;BME280;36548;50.506;30.834;2023-07-24T05:17:22;99812.89;;;26.69;40.11
50592;BME280;36548;50.506;30.834;2023-07-24T05:18:38;99808.66;;;26.80;40.22
50592;BME280;36548;50.506;30.834;2023-07-24T05:19:48;99815.02;;;26.74;40.23
50592;BME280;36548;50.506;30.834;2023-07-24T05:20:58;99799.35;;;26.81;40.20
50592;BME280;36548;50.506;30.834;2023-07-24T05:22:15;99800.32;;;27.00;39.91
50592;BME280;36548;50.506;30.834;2023-07-24T05:23:26;99806.49;;;26.95;40.14
50592;BME280;36548;50.506;30.834;2023-07-24T05:24:42;99800.47;;;27.18;39.91
50592;BME280;36548;50.506;30.834;2023-07-24T05:26:01;99804.48;;;27.22;39.87
50592;BME280;36548;50.506;30.834;2023-07-24T05:27:17;99796.92;;;27.50;39.24
50592;BME280;36548;50.506;30.834;2023-07-24T05:28:27;99797.78;;;27.50;38.72
50592;BME280;36548;50.506;30.834;2023-07-24T05:29:43;99795.33;;;27.67;38.67
50592;BME280;36548;50.506;30.834;2023-07-24T05:30:54;99800.05;;;27.60;38.91
50592;BME280;36548;50.506;30.834;2023-07-24T05:32:10;99792.98;;;27.71;38.85
50592;BME280;36548;50.506;30.834;2023-07-24T05:33:20;99794.54;;;27.60;38.69
50592;BME280;36548;50.506;30.834;2023-07-24T05:34:36;99796.98;;;27.75;38.36
50592;BME280;36548;50.506;30.834;2023-07-24T05:35:45;99797.03;;;27.68;38.01
50592;BME280;36548;50.506;30.834;2023-07-24T05:37:02;99792.98;;;27.71;37.84
50592;BME280;36548;50.506;30.834;2023-07-24T05:38:11;99798.09;;;27.67;38.29
50592;BME280;36548;50.506;30.834;2023-07-24T05:39:20;99797.86;;;27.69;38.28
50592;BME280;36548;50.506;30.834;2023-07-24T05:40:36;99803.02;;;27.90;38.00
50592;BME280;36548;50.506;30.834;2023-07-24T05:41:47;99803.02;;;27.90;37.81
50592;BME280;36548;50.506;30.834;2023-07-24T05:43:03;99796.59;;;27.97;37.52
50592;BME280;36548;50.506;30.834;2023-07-24T05:44:12;99792.48;;;27.81;37.62
50592;BME280;36548;50.506;30.834;2023-07-24T05:45:22;99795.74;;;27.71;37.44
50592;BME280;36548;50.506;30.834;2023-07-24T05:46:32;99800.17;;;27.72;37.94
50592;BME280;36548;50.506;30.834;2023-07-24T05:47:47;99790.89;;;27.92;37.81
50592;BME280;36548;50.506;30.834;2023-07-24T05:48:57;99799.47;;;27.83;37.59
50592;BME280;36548;50.506;30.834;2023-07-24T05:50:13;99796.86;;;27.88;36.92
50592;BME280;36548;50.506;30.834;2023-07-24T05:51:24;99793.25;;;27.63;37.00
50592;BME280;36548;50.506;30.834;2023-07-24T05:52:39;99794.27;;;27.68;37.37
50592;BME280;36548;50.506;30.834;2023-07-24T05:53:49;99800.28;;;27.59;37.80
50592;BME280;36548;50.506;30.834;2023-07-24T05:55:06;99796.30;;;27.80;37.95
50592;BME280;36548;50.506;30.834;2023-07-24T05:56:14;99793.14;;;27.76;37.46
50592;BME280;36548;50.506;30.834;2023-07-24T05:57:25;99800.08;;;27.85;37.69
50592;BME280;36548;50.506;30.834;2023-07-24T05:58:41;99784.95;;;27.95;37.14
50592;BME280;36548;50.506;30.834;2023-07-24T05:59:51;99782.47;;;27.86;36.93
50592;BME280;36548;50.506;30.834;2023-07-24T06:01:07;99769.23;;;27.95;37.04
50592;BME280;36548;50.506;30.834;2023-07-24T06:02:17;99780.17;;;27.83;37.18
50592;BME280;36548;50.506;30.834;2023-07-24T06:03:27;99779.71;;;27.86;37.37
50592;BME280;36548;50.506;30.834;2023-07-24T06:04:37;99765.88;;;27.93;37.60
50592;BME280;36548;50.506;30.834;2023-07-24T06:05:54;99767.23;;;28.09;37.65
50592;BME280;36548;50.506;30.834;2023-07-24T06:07:10;99766.91;;;28.43;36.94
50592;BME280;36548;50.506;30.834;2023-07-24T06:08:21;99767.67;;;28.50;36.64
50592;BME280;36548;50.506;30.834;2023-07-24T06:09:38;99755.51;;;28.76;36.18
50592;BME280;36548;50.506;30.834;2023-07-24T06:10:48;99760.59;;;28.79;36.15
50592;BME280;36548;50.506;30.834;2023-07-24T06:12:04;99753.27;;;29.03;35.57
50592;BME280;36548;50.506;30.834;2023-07-24T06:13:13;99756.86;;;29.04;35.47
50592;BME280;36548;50.506;30.834;2023-07-24T06:14:29;99749.17;;;29.24;35.07
50592;BME280;36548;50.506;30.834;2023-07-24T06:15:38;99749.37;;;29.23;34.79
50592;BME280;36548;50.506;30.834;2023-07-24T06:16:48;99750.86;;;29.25;34.69
50592;BME280;36548;50.506;30.834;2023-07-24T06:18:03;99747.44;;;29.42;35.07
50592;BME280;36548;50.506;30.834;2023-07-24T06:19:13;99749.14;;;29.43;34.88
50592;BME280;36548;50.506;30.834;2023-07-24T06:20:23;99760.55;;;29.47;34.46
50592;BME280;36548;50.506;30.834;2023-07-24T06:21:33;99756.33;;;29.44;34.37
50592;BME280;36548;50.506;30.834;2023-07-24T06:22:48;99746.38;;;29.55;34.43
50592;BME280;36548;50.506;30.834;2023-07-24T06:23:57;99750.46;;;29.52;34.28
50592;BME280;36548;50.506;30.834;2023-07-24T06:25:07;99751.53;;;29.51;34.41
50592;BME280;36548;50.506;30.834;2023-07-24T06:26:23;99759.53;;;29.71;33.94